Time;durP1;ratioP1;P1;durP2;ratioP2;P2;SDS_P1;SDS_P2;PMS_P1;PMS_P2;Temp;Humidity;BMP_temperature;BMP_pressure;BME280_temperature;BME280_humidity;BME280_pressure;Samples;Min_cycle;Max_cycle;Signal;HPM_P1;HPM_P2
2021/03/03 00:04:13;;;;;;;54.80;25.20;;;;;;;5.68;97.62;102815.28;12849594;23;20012;-74
2021/03/03 00:09:14;;;;;;;52.28;24.52;;;;;;;5.22;97.24;102748.44;12850339;23;20598;-74
2021/03/03 00:14:14;;;;;;;44.92;24.55;;;;;;;5.14;97.47;102747.16;12825175;23;20510;-74
2021/03/03 00:19:14;;;;;;;49.10;24.17;;;;;;;4.90;97.21;102730.91;12823873;23;20058;-75
2021/03/03 00:24:15;;;;;;;47.45;25.58;;;;;;;4.65;97.49;102692.41;12850515;23;20122;-75
2021/03/03 00:29:15;;;;;;;47.10;26.40;;;;;;;5.19;98.15;102797.28;12823668;23;20023;-75
2021/03/03 00:34:16;;;;;;;47.85;25.20;;;;;;;5.29;99.14;102818.66;12820517;23;20384;-75
2021/03/03 00:39:16;;;;;;;48.10;26.23;;;;;;;5.11;98.95;102795.16;12823961;23;20019;-74
2021/03/03 00:44:17;;;;;;;51.17;25.10;;;;;;;5.12;98.70;102802.13;12850355;23;20013;-75
2021/03/03 00:49:17;;;;;;;44.78;25.25;;;;;;;4.03;98.92;102648.13;12848363;23;20423;-74
2021/03/03 00:54:19;;;;;;;52.42;26.23;;;;;;;5.13;98.68;102811.75;12849000;23;20016;-74
2021/03/03 00:59:19;;;;;;;45.70;25.07;;;;;;;4.81;98.50;102764.69;12847974;23;20009;-74
2021/03/03 01:04:20;;;;;;;45.92;23.48;;;;;;;5.14;98.66;102821.41;12847800;23;20016;-74
2021/03/03 01:09:23;;;;;;;49.03;25.73;;;;;;;4.79;98.46;102777.56;12849168;23;20012;-75
2021/03/03 01:14:23;;;;;;;;;;;;;;;5.16;99.03;102835.34;12823068;23;20427;-75
2021/03/03 01:19:23;;;;;;;46.88;24.52;;;;;;;5.17;99.14;102826.22;12848814;23;19904;-74
2021/03/03 01:24:24;;;;;;;45.20;24.45;;;;;;;4.66;99.30;102752.94;12849165;23;20060;-74
2021/03/03 01:29:24;;;;;;;50.05;25.80;;;;;;;4.81;100.00;102780.78;12848450;23;20012;-74
2021/03/03 01:34:25;;;;;;;44.95;22.70;;;;;;;4.42;100.00;102719.78;12850279;23;20006;-74
2021/03/03 01:39:25;;;;;;;50.00;24.98;;;;;;;4.77;100.00;102779.69;12856247;23;20034;-75
2021/03/03 01:44:26;;;;;;;48.53;26.85;;;;;;;4.23;100.00;102690.09;12856055;23;20013;-74
2021/03/03 01:49:26;;;;;;;53.45;25.88;;;;;;;4.86;100.00;102778.06;12845501;23;20423;-75
2021/03/03 01:54:27;;;;;;;45.90;25.83;;;;;;;4.44;100.00;102731.03;12850288;23;20016;-75
2021/03/03 01:59:27;;;;;;;44.38;24.02;;;;;;;4.81;100.00;102780.78;12847264;23;20067;-75
2021/03/03 02:04:28;;;;;;;52.10;25.20;;;;;;;4.65;100.00;102767.41;12848048;23;20013;-75
2021/03/03 02:09:31;;;;;;;44.50;23.60;;;;;;;4.80;100.00;102779.19;12852208;23;20015;-75
2021/03/03 02:14:33;;;;;;;43.72;23.88;;;;;;;4.69;100.00;102766.88;12853276;23;20415;-74
2021/03/03 02:19:36;;;;;;;48.28;24.40;;;;;;;4.51;100.00;102750.28;12827424;23;20001;-75
2021/03/03 02:24:42;;;;;;;45.85;24.02;;;;;;;4.10;100.00;102678.06;12850349;23;20491;-75
2021/03/03 02:29:43;;;;;;;43.55;22.73;;;;;;;4.58;100.00;102760.72;12801989;23;20005;-75
2021/03/03 02:34:44;;;;;;;43.00;24.17;;;;;;;4.23;100.00;102704.31;12851819;23;20005;-75
2021/03/03 02:39:45;;;;;;;46.95;25.13;;;;;;;4.58;100.00;102772.25;12853232;23;20454;-75
2021/03/03 02:44:47;;;;;;;45.50;23.85;;;;;;;4.38;100.00;102740.16;12826682;23;20016;-75
2021/03/03 02:49:48;;;;;;;56.55;23.25;;;;;;;4.55;100.00;102762.06;12851426;23;20000;-75
2021/03/03 02:54:49;;;;;;;45.22;22.33;;;;;;;4.23;100.00;102706.97;12848778;23;20067;-75
2021/03/03 02:59:53;;;;;;;36.20;20.50;;;;;;;4.66;100.00;102762.88;12823247;23;20449;-74
2021/03/03 03:04:57;;;;;;;44.13;23.15;;;;;;;4.14;100.00;102687.19;12847387;23;20436;-75
2021/03/03 03:09:58;;;;;;;42.92;21.70;;;;;;;4.27;100.00;102711.78;12824791;23;20015;-76
2021/03/03 03:15:00;;;;;;;49.42;23.77;;;;;;;4.50;100.00;102756.72;12849548;23;20023;-76
2021/03/03 03:20:01;;;;;;;38.90;20.95;;;;;;;4.57;100.00;102776.00;12850118;23;20063;-74
2021/03/03 03:25:02;;;;;;;40.85;22.42;;;;;;;4.15;100.00;102699.47;12850730;23;20062;-74
2021/03/03 03:30:04;;;;;;;45.80;24.17;;;;;;;4.56;100.00;102769.06;12850767;23;20009;-75
2021/03/03 03:35:05;;;;;;;44.45;22.80;;;;;;;4.68;100.00;102765.25;12796842;23;20005;-75
2021/03/03 03:40:06;;;;;;;41.38;21.95;;;;;;;4.51;100.00;102755.66;12850559;23;20012;-74
2021/03/03 03:45:07;;;;;;;38.53;21.17;;;;;;;4.29;100.00;102725.72;12850304;23;20008;-74
2021/03/03 03:50:11;;;;;;;40.90;22.08;;;;;;;4.14;100.00;102716.63;12850853;23;20523;-75
2021/03/03 03:55:11;;;;;;;42.97;22.13;;;;;;;4.21;100.00;102730.53;12847647;23;20013;-75
2021/03/03 04:00:14;;;;;;;42.33;22.15;;;;;;;4.26;100.00;102731.59;12867085;23;20439;-75
2021/03/03 04:05:15;;;;;;;;;;;;;;;4.61;100.00;102782.44;12823573;23;20023;-74
2021/03/03 04:10:21;;;;;;;49.13;25.98;;;;;;;4.05;100.00;102696.81;12851372;23;20207;-75
2021/03/03 04:15:23;;;;;;;43.50;23.33;;;;;;;4.49;100.00;102767.69;12822910;23;20027;-75
2021/03/03 04:20:23;;;;;;;41.50;21.95;;;;;;;4.19;100.00;102727.31;12850569;23;20012;-74
2021/03/03 04:25:27;;;;;;;43.88;22.88;;;;;;;4.32;100.00;102751.94;12822391;23;20394;-74
2021/03/03 04:30:27;;;;;;;43.35;22.45;;;;;;;4.52;100.00;102784.06;12850278;23;20083;-74
2021/03/03 04:35:28;;;;;;;41.13;22.80;;;;;;;4.33;100.00;102774.97;12799745;23;20379;-75
2021/03/03 04:40:28;;;;;;;38.70;21.77;;;;;;;4.14;100.00;102721.16;12824492;23;20020;-74
2021/03/03 04:45:29;;;;;;;45.35;22.38;;;;;;;4.33;100.00;102748.19;12822662;23;20399;-74
2021/03/03 04:50:29;;;;;;;43.22;22.63;;;;;;;4.07;100.00;102705.38;12824541;23;20013;-74
2021/03/03 04:55:30;;;;;;;39.10;22.35;;;;;;;4.28;100.00;102740.16;12848779;23;20427;-74
2021/03/03 05:00:30;;;;;;;45.25;22.00;;;;;;;4.39;100.00;102765.84;12846772;23;20017;-73
2021/03/03 05:05:33;;;;;;;41.13;22.50;;;;;;;3.76;100.00;102675.97;12824431;23;20012;-74
2021/03/03 05:10:33;;;;;;;41.15;22.73;;;;;;;4.33;100.00;102753.56;12850437;23;20012;-74
2021/03/03 05:15:34;;;;;;;40.92;20.90;;;;;;;3.89;100.00;102689.88;12825874;23;20009;-75
2021/03/03 05:20:34;;;;;;;42.17;22.10;;;;;;;4.21;100.00;102735.88;12854708;23;20103;-75
2021/03/03 05:25:35;;;;;;;40.85;21.48;;;;;;;3.88;100.00;102688.25;12850127;23;20373;-76
2021/03/03 05:30:41;;;;;;;39.17;21.75;;;;;;;4.27;100.00;102755.41;12823030;23;20376;-78
2021/03/03 05:35:42;;;;;;;45.30;22.67;;;;;;;4.02;100.00;102716.91;12822671;23;20009;-78
2021/03/03 05:40:49;;;;;;;39.40;22.95;;;;;;;3.92;100.00;102695.47;12824433;23;20016;-76
2021/03/03 05:45:55;;;;;;;37.97;21.85;;;;;;;3.76;100.00;102684.00;12826216;23;20412;-78
2021/03/03 05:51:08;;;;;;;37.95;22.33;;;;;;;3.03;100.00;102592.47;12825324;23;20024;-79
2021/03/03 05:56:34;;;;;;;46.22;22.60;;;;;;;2.97;100.00;102579.13;12806013;23;20012;-77
2021/03/03 06:01:37;;;;;;;48.83;25.42;;;;;;;3.68;100.00;102684.50;12842996;23;20044;-79
2021/03/03 06:06:59;;;;;;;51.63;26.80;;;;;;;2.93;100.00;102554.00;12823982;23;20096;-79
2021/03/03 06:12:08;;;;;;;52.60;28.98;;;;;;;2.57;100.00;102514.94;12824026;23;20004;-77
2021/03/03 06:17:30;;;;;;;;;;;;;;;;;;;;;
2021/03/03 06:22:42;;;;;;;51.78;26.85;;;;;;;3.96;100.00;102749.28;12851356;23;20032;-78
2021/03/03 06:27:42;;;;;;;44.60;24.65;;;;;;;4.30;100.00;102791.56;12824196;23;20019;-79
2021/03/03 06:33:02;;;;;;;49.80;26.05;;;;;;;4.16;100.00;102765.34;12826294;23;20583;-78
2021/03/03 06:38:04;;;;;;;47.58;27.90;;;;;;;4.03;100.00;102733.75;12852235;23;20067;-78
2021/03/03 06:43:18;;;;;;;56.17;30.33;;;;;;;4.64;100.00;102819.38;12852297;23;20004;-79
2021/03/03 06:48:40;;;;;;;54.72;29.83;;;;;;;4.55;100.00;102778.16;12852331;23;20024;-79
2021/03/03 06:53:41;;;;;;;55.85;30.23;;;;;;;4.84;100.00;102812.38;12822640;23;20036;-79
2021/03/03 06:58:41;;;;;;;57.88;31.10;;;;;;;4.97;100.00;102827.09;12823138;23;20016;-79
2021/03/03 07:03:42;;;;;;;57.60;28.25;;;;;;;4.96;100.00;102823.63;12849852;23;20020;-78
2021/03/03 07:08:56;;;;;;;49.90;28.80;;;;;;;5.11;100.00;102821.97;12824085;23;20013;-79
2021/03/03 07:13:57;;;;;;;52.42;29.25;;;;;;;5.16;100.00;102846.09;12825180;23;20431;-78
2021/03/03 07:18:57;;;;;;;56.67;30.50;;;;;;;4.58;100.00;102729.38;12851724;23;20040;-78
2021/03/03 07:23:58;;;;;;;53.40;28.58;;;;;;;4.88;100.00;102760.66;12824083;23;20039;-79
2021/03/03 07:29:02;;;;;;;54.42;30.08;;;;;;;5.46;100.00;102832.56;12848860;23;20009;-78
2021/03/03 07:34:02;;;;;;;53.00;27.52;;;;;;;5.72;100.00;102837.81;12849389;23;20012;-78
2021/03/03 07:39:05;;;;;;;45.95;26.13;;;;;;;5.62;100.00;102816.38;12849486;23;20931;-78
2021/03/03 07:44:06;;;;;;;38.97;21.58;;;;;;;5.12;100.00;102748.50;12824296;23;20070;-78
2021/03/03 07:49:09;;;;;;;32.30;20.58;;;;;;;5.53;100.00;102823.41;12850088;23;20013;-79
2021/03/03 07:54:11;;;;;;;34.80;21.45;;;;;;;5.74;100.00;102846.38;12825381;23;20016;-78
2021/03/03 07:59:12;;;;;;;34.83;20.70;;;;;;;5.84;100.00;102840.94;12850172;23;20017;-79
2021/03/03 08:04:37;;;;;;;37.13;21.30;;;;;;;6.09;100.00;102845.41;12823411;23;20035;-79
2021/03/03 08:09:37;;;;;;;31.30;20.42;;;;;;;5.13;100.00;102648.22;12823003;23;20008;-79
2021/03/03 08:14:38;;;;;;;36.28;19.75;;;;;;;6.15;100.00;102749.47;12850339;23;20246;-79
2021/03/03 08:19:57;;;;;;;31.48;18.85;;;;;;;6.61;100.00;102762.47;12823086;23;20040;-79
2021/03/03 08:24:58;;;;;;;33.28;19.77;;;;;;;6.80;100.00;102737.53;12848598;23;20348;-78
2021/03/03 08:30:17;;;;;;;27.60;19.20;;;;;;;7.02;100.00;102734.34;12774699;23;20024;-78
2021/03/03 08:35:37;;;;;;;27.90;18.13;;;;;;;7.01;100.00;102685.13;12822224;23;20075;-78
2021/03/03 08:40:38;;;;;;;28.17;18.42;;;;;;;7.89;100.00;102811.97;12822230;23;20028;-79
2021/03/03 08:45:38;;;;;;;30.92;17.58;;;;;;;7.37;99.97;102719.59;12846941;23;20097;-79
2021/03/03 08:50:44;;;;;;;31.17;18.15;;;;;;;8.14;97.70;102769.59;12856899;23;20024;-79
2021/03/03 08:56:36;;;;;;;27.48;17.98;;;;;;;8.68;96.80;102822.03;12794780;23;20387;-78
2021/03/03 09:02:01;;;;;;;25.50;17.35;;;;;;;8.55;93.20;102728.47;12844438;23;20017;-79
2021/03/03 09:07:18;;;;;;;31.58;17.55;;;;;;;9.20;92.20;102806.47;12845682;23;20475;-79
2021/03/03 09:12:22;;;;;;;27.98;16.88;;;;;;;9.57;91.75;102812.72;12848980;23;20016;-79
2021/03/03 09:17:28;;;;;;;26.48;16.23;;;;;;;10.63;84.50;102801.53;12847381;23;20016;-78
2021/03/03 09:22:34;;;;;;;19.63;11.73;;;;;;;11.62;78.88;102780.28;12847624;23;20367;-78
2021/03/03 09:27:34;;;;;;;14.38;9.70;;;;;;;12.08;75.69;102765.28;12821066;23;20013;-77
2021/03/03 09:32:35;;;;;;;15.57;10.70;;;;;;;12.31;73.14;102751.50;12820297;23;20005;-78
2021/03/03 09:37:41;;;;;;;17.45;10.20;;;;;;;12.81;71.50;102802.38;12773263;23;20681;-78
2021/03/03 09:42:47;;;;;;;16.50;9.75;;;;;;;12.73;70.94;102733.44;12848117;23;20020;-79
2021/03/03 09:47:50;;;;;;;16.15;8.55;;;;;;;12.82;69.37;102665.56;12848936;23;20856;-79
2021/03/03 09:52:55;;;;;;;11.75;9.02;;;;;;;13.19;69.24;102730.91;12821144;23;20008;-79
2021/03/03 09:57:57;;;;;;;13.70;10.18;;;;;;;13.83;67.75;102790.38;12795786;23;20092;-78
2021/03/03 10:03:14;;;;;;;14.07;10.53;;;;;;;13.85;67.13;102793.56;12795775;23;20396;-78
2021/03/03 10:08:14;;;;;;;14.48;10.95;;;;;;;14.11;67.31;102801.47;12820421;23;20295;-79
2021/03/03 10:13:20;;;;;;;14.77;11.85;;;;;;;14.03;66.01;102774.34;12848968;23;20386;-78
2021/03/03 10:18:21;;;;;;;17.63;11.40;;;;;;;14.59;65.12;102782.88;12849650;23;20004;-78
2021/03/03 10:23:36;;;;;;;16.88;12.50;;;;;;;14.29;64.79;102747.66;12849738;23;20000;-79
2021/03/03 10:28:37;;;;;;;18.52;13.98;;;;;;;14.78;64.92;102794.00;12826503;23;20075;-79
2021/03/03 10:33:40;;;;;;;16.10;13.23;;;;;;;14.42;65.98;102783.06;12852227;23;20019;-78
2021/03/03 10:38:49;;;;;;;20.58;15.02;;;;;;;14.03;65.42;102745.22;12798088;23;20075;-79
2021/03/03 10:43:50;;;;;;;21.67;15.13;;;;;;;13.67;66.53;102716.03;12799885;23;20004;-79
2021/03/03 10:48:52;;;;;;;20.65;15.10;;;;;;;13.60;66.26;102650.56;12776775;23;20176;-79
2021/03/03 10:53:59;;;;;;;23.47;15.57;;;;;;;14.27;66.33;102785.28;12774322;23;20774;-79
2021/03/03 10:59:05;;;;;;;25.00;18.08;;;;;;;13.46;67.98;102711.41;12851503;23;20013;-80
2021/03/03 11:04:06;;;;;;;25.20;17.70;;;;;;;13.84;69.05;102791.97;12825570;23;20621;-80
2021/03/03 11:09:11;;;;;;;24.90;19.05;;;;;;;13.20;70.72;102756.97;12824672;23;20115;-81
2021/03/03 11:14:11;;;;;;;30.10;21.45;;;;;;;13.52;70.58;102785.34;12828523;23;20558;-79
2021/03/03 11:19:11;;;;;;;31.15;21.80;;;;;;;13.67;70.33;102776.59;12852066;23;20017;-80
2021/03/03 11:24:12;;;;;;;29.63;21.48;;;;;;;13.87;69.03;102774.97;12799976;23;20505;-80
2021/03/03 11:29:13;;;;;;;29.70;21.35;;;;;;;13.56;69.23;102723.00;12799575;23;20032;-80
2021/03/03 11:34:14;;;;;;;30.73;22.65;;;;;;;13.78;68.89;102777.00;12850049;23;20008;-80
2021/03/03 11:39:14;;;;;;;34.20;24.50;;;;;;;13.65;69.79;102756.31;12799559;23;20008;-81
2021/03/03 11:44:17;;;;;;;;;;;;;;;13.62;70.33;102789.59;12847502;23;20031;-80
2021/03/03 11:49:20;;;;;;;33.87;24.97;;;;;;;13.17;70.47;102687.00;12799269;23;19923;-78
2021/03/03 11:54:20;;;;;;;36.97;25.63;;;;;;;12.77;69.72;102614.19;12823660;23;21083;-80
2021/03/03 11:59:23;;;;;;;38.92;26.25;;;;;;;13.53;69.11;102710.88;12848864;23;20111;-80
2021/03/03 12:04:23;;;;;;;38.92;27.23;;;;;;;13.40;69.76;102685.56;12797560;23;20016;-79
2021/03/03 12:09:24;;;;;;;40.83;27.73;;;;;;;13.93;69.14;102743.72;12798517;23;20420;-79
2021/03/03 12:14:24;;;;;;;38.95;28.00;;;;;;;13.50;70.29;102696.03;12822218;23;20419;-79
2021/03/03 12:19:25;;;;;;;43.42;27.30;;;;;;;13.85;70.38;102736.47;12797416;23;20078;-79
2021/03/03 12:24:25;;;;;;;39.53;27.60;;;;;;;14.06;69.71;102722.00;12828223;23;20008;-79
2021/03/03 12:29:26;;;;;;;41.45;28.88;;;;;;;14.00;69.68;102718.72;12860430;23;20012;-79
2021/03/03 12:34:27;;;;;;;40.42;27.50;;;;;;;13.75;69.84;102701.53;12857471;23;20004;-79
2021/03/03 12:39:30;;;;;;;46.17;31.27;;;;;;;13.48;70.54;102649.38;12825009;23;20047;-78
2021/03/03 12:44:30;;;;;;;41.20;30.23;;;;;;;13.85;69.27;102668.50;12847858;23;20005;-79
2021/03/03 12:49:31;;;;;;;43.42;29.98;;;;;;;14.26;68.98;102710.25;12822321;23;20458;-78
2021/03/03 12:54:31;;;;;;;44.05;29.95;;;;;;;13.82;68.95;102631.13;12850375;23;20411;-78
2021/03/03 12:59:32;;;;;;;46.47;31.80;;;;;;;14.10;69.30;102663.09;12847011;23;20016;-78
2021/03/03 13:04:32;;;;;;;49.42;32.90;;;;;;;14.37;69.05;102689.66;12823533;23;20013;-78
2021/03/03 13:09:33;;;;;;;46.60;32.72;;;;;;;14.50;68.77;102681.47;12854707;23;20438;-82
2021/03/03 13:14:33;;;;;;;55.47;36.17;;;;;;;13.32;68.33;102532.41;12848403;23;20014;-82
2021/03/03 13:19:34;;;;;;;55.42;34.58;;;;;;;14.25;67.83;102616.19;12815310;23;20373;-82
2021/03/03 13:24:34;;;;;;;49.53;33.67;;;;;;;14.21;69.48;102666.97;12843384;23;20023;-79
2021/03/03 13:29:36;;;;;;;55.15;37.15;;;;;;;13.35;71.25;102653.19;12845893;23;20093;-79
2021/03/03 13:34:40;;;;;;;52.35;34.95;;;;;;;13.20;71.67;102615.75;12846093;23;20082;-80
2021/03/03 13:39:41;;;;;;;55.08;34.38;;;;;;;13.50;71.82;102685.16;12844269;23;20019;-81
2021/03/03 13:44:41;;;;;;;54.40;35.33;;;;;;;13.05;73.75;102685.84;12846861;23;20396;-79
2021/03/03 13:49:59;;;;;;;44.35;32.78;;;;;;;12.74;75.79;102641.97;12821682;23;20100;-80
2021/03/03 13:55:00;;;;;;;53.97;34.33;;;;;;;13.16;76.02;102674.56;12774678;23;20098;-80
2021/03/03 14:00:01;;;;;;;49.75;34.65;;;;;;;13.00;75.10;102631.72;12821506;23;20638;-79
2021/03/03 14:05:05;;;;;;;51.47;37.42;;;;;;;13.20;75.26;102670.06;12824950;23;20013;-81
2021/03/03 14:10:06;;;;;;;63.45;41.60;;;;;;;13.55;72.20;102675.22;12824261;23;20484;-81
2021/03/03 14:15:12;;;;;;;58.45;39.67;;;;;;;13.56;71.34;102655.06;12848268;23;20004;-81
2021/03/03 14:20:13;;;;;;;48.97;34.85;;;;;;;13.81;71.54;102624.09;12823518;23;20043;-80
2021/03/03 14:25:14;;;;;;;48.83;35.30;;;;;;;13.94;72.22;102650.16;12848136;23;20008;-80
2021/03/03 14:30:15;;;;;;;48.80;34.60;;;;;;;14.21;70.56;102653.38;12849684;23;20008;-80
2021/03/03 14:35:15;;;;;;;54.80;38.60;;;;;;;13.83;71.47;102638.16;12850162;23;20040;-81
2021/03/03 14:40:16;;;;;;;53.90;36.65;;;;;;;13.36;71.46;102559.72;12848871;23;20039;-80
2021/03/03 14:45:17;;;;;;;51.75;36.42;;;;;;;13.54;74.06;102614.63;12847506;23;20126;-81
2021/03/03 14:50:17;;;;;;;53.63;38.90;;;;;;;13.20;74.80;102615.75;12847782;23;20012;-81
2021/03/03 14:55:18;;;;;;;51.72;37.65;;;;;;;13.22;75.88;102643.38;12849258;23;20092;-81
2021/03/03 15:00:19;;;;;;;52.97;38.35;;;;;;;12.65;75.56;102580.44;12857539;23;20012;-80
2021/03/03 15:05:19;;;;;;;57.65;38.83;;;;;;;12.67;76.83;102627.00;12881430;23;20018;-79
2021/03/03 15:10:21;;;;;;;61.78;41.40;;;;;;;12.53;76.89;102642.75;12883617;23;20037;-78
2021/03/03 15:15:21;;;;;;;55.17;39.23;;;;;;;12.30;78.28;102633.28;12910367;23;20016;-79
2021/03/03 15:20:22;;;;;;;56.05;39.72;;;;;;;10.93;79.57;102492.22;12883300;23;20590;-77
2021/03/03 15:25:24;;;;;;;59.80;39.95;;;;;;;11.35;81.04;102598.03;12911321;23;20019;-78
2021/03/03 15:30:24;;;;;;;61.45;43.00;;;;;;;11.45;82.90;102648.34;12884305;23;20012;-78
2021/03/03 15:35:25;;;;;;;70.32;43.97;;;;;;;10.95;83.31;102617.16;12910881;23;20013;-79
2021/03/03 15:40:26;;;;;;;67.95;43.60;;;;;;;10.90;82.76;102579.47;12859894;23;20161;-79
2021/03/03 15:45:26;;;;;;;67.72;43.47;;;;;;;10.78;82.88;102593.63;12881125;23;20008;-79
2021/03/03 15:50:32;;;;;;;67.63;44.05;;;;;;;10.82;83.78;102588.38;12884640;23;20087;-84
2021/03/03 15:55:39;;;;;;;76.18;45.50;;;;;;;10.95;84.41;102619.09;12885466;23;20014;-82
2021/03/03 16:00:39;;;;;;;73.50;45.95;;;;;;;10.78;83.59;102625.28;12812475;23;20021;-77
2021/03/03 16:05:42;;;;;;;73.22;45.72;;;;;;;10.31;85.24;102630.44;12827593;23;20017;-80
2021/03/03 16:10:43;;;;;;;;;;;;;;;9.65;90.07;102622.97;12808399;23;20004;-80
2021/03/03 16:15:46;;;;;;;87.03;49.33;;;;;;;9.31;92.25;102624.34;12826482;23;19954;-81
2021/03/03 16:20:49;;;;;;;90.10;50.83;;;;;;;8.96;93.95;102617.03;12848414;23;20009;-74
2021/03/03 16:25:57;;;;;;;94.93;51.85;;;;;;;8.76;95.72;102639.88;12848112;23;20443;-77
2021/03/03 16:31:09;;;;;;;91.38;49.70;;;;;;;8.70;95.39;102625.69;12772070;23;20028;-78
2021/03/03 16:36:55;;;;;;;90.30;49.80;;;;;;;8.39;96.76;102610.13;12754213;23;20005;-81
2021/03/03 16:42:00;;;;;;;87.65;48.72;;;;;;;7.68;96.14;102517.28;12772155;23;20012;-84
2021/03/03 16:52:53;;;;;;;85.82;48.15;;;;;;;6.15;97.23;102381.63;12803106;23;20320;-82
2021/03/03 16:58:41;;;;;;;;;;;;;;;;;;;;;
2021/03/03 17:04:42;;;;;;;;;;;;;;;;;;;;;
2021/03/03 17:16:23;;;;;;;89.25;50.22;;;;;;;6.11;100.00;102431.59;12273098;23;20494;-85
2021/03/03 17:21:25;;;;;;;93.93;52.65;;;;;;;5.67;99.88;102357.56;12824830;23;20082;-81
2021/03/03 17:32:34;;;;;;;89.53;50.53;;;;;;;7.26;99.42;102589.03;12755079;23;20415;-78
2021/03/03 17:37:44;;;;;;;91.93;51.03;;;;;;;7.06;100.00;102569.44;12822465;23;20424;-82
2021/03/03 17:42:50;;;;;;;105.13;53.35;;;;;;;7.26;100.00;102605.16;12753292;23;20455;-85
2021/03/03 17:48:08;;;;;;;109.82;53.85;;;;;;;6.62;100.00;102516.84;12766569;23;20427;-83
2021/03/03 17:53:15;;;;;;;113.93;55.78;;;;;;;6.49;100.00;102506.81;12818787;23;20065;-84
2021/03/03 17:58:22;;;;;;;118.75;58.10;;;;;;;5.55;100.00;102392.03;12793495;23;20313;-84
2021/03/03 18:03:55;;;;;;;118.63;56.13;;;;;;;6.08;100.00;102475.16;12856870;23;20052;-85
2021/03/03 18:09:44;;;;;;;;;;;;;;;;;;;;;
2021/03/03 18:14:50;;;;;;;107.15;52.15;;;;;;;6.37;100.00;102519.88;12801434;23;20327;-82
2021/03/03 18:20:01;;;;;;;;;;;;;;;;;;;;;
2021/03/03 18:25:25;;;;;;;123.15;57.78;;;;;;;6.32;100.00;102475.88;12795441;23;20466;-83
2021/03/03 18:30:26;;;;;;;123.20;55.90;;;;;;;7.06;100.00;102596.31;12794495;23;20084;-81
2021/03/03 18:36:24;;;;;;;112.95;54.17;;;;;;;5.57;100.00;102357.69;12552688;23;20058;-81
2021/03/03 18:41:49;;;;;;;116.10;53.65;;;;;;;7.00;100.00;102600.16;12601733;23;20021;-84
2021/03/03 18:47:50;;;;;;;;;;;;;;;;;;;;;
2021/03/03 18:59:40;;;;;;;;;;;;;;;;;;;;;
2021/03/03 19:05:02;;;;;;;119.65;55.60;;;;;;;6.57;100.00;102573.34;12816600;23;20016;-81
2021/03/03 19:10:08;;;;;;;106.95;52.08;;;;;;;5.55;100.00;102405.44;12806392;23;20395;-82
2021/03/03 19:21:53;;;;;;;135.23;57.80;;;;;;;6.38;100.00;102591.34;12678670;23;20020;-85
2021/03/03 19:27:48;;;;;;;143.32;59.17;;;;;;;6.28;100.00;102597.59;12775468;23;20008;-84
2021/03/03 19:33:24;;;;;;;141.02;58.67;;;;;;;5.19;100.00;102389.75;12622560;23;20004;-79
2021/03/03 19:38:25;;;;;;;153.85;63.22;;;;;;;5.82;100.00;102499.56;12819759;23;20016;-81
2021/03/03 19:43:26;;;;;;;149.20;61.63;;;;;;;6.35;100.00;102544.38;12817177;23;20009;-79
2021/03/03 19:48:27;;;;;;;171.68;65.28;;;;;;;5.49;100.00;102410.88;12818594;23;20327;-81
2021/03/03 19:53:28;;;;;;;166.55;63.03;;;;;;;6.51;100.00;102563.75;12768815;23;20443;-81
2021/03/03 19:58:29;;;;;;;161.75;65.10;;;;;;;6.43;100.00;102540.22;12846872;23;20104;-79
2021/03/03 20:03:29;;;;;;;167.40;65.10;;;;;;;6.48;100.00;102537.47;12821361;23;20017;-80
2021/03/03 20:08:30;;;;;;;153.13;66.65;;;;;;;6.68;100.00;102547.94;12846560;23;20808;-82
2021/03/03 20:13:32;;;;;;;170.02;65.70;;;;;;;6.43;100.00;102502.63;12821059;23;20023;-79
2021/03/03 20:18:34;;;;;;;178.70;66.85;;;;;;;5.59;100.00;102393.06;12769415;23;20024;-80
2021/03/03 20:23:35;;;;;;;188.00;69.05;;;;;;;5.70;100.00;102407.94;12846166;23;20608;-81
2021/03/03 20:28:36;;;;;;;186.18;69.65;;;;;;;6.18;100.00;102488.44;12796869;23;20023;-80
2021/03/03 20:33:37;;;;;;;198.45;72.80;;;;;;;6.34;100.00;102516.69;12820286;23;20008;-83
2021/03/03 20:38:38;;;;;;;184.48;69.80;;;;;;;6.41;100.00;102526.28;12848807;23;20054;-81
2021/03/03 20:43:38;;;;;;;189.88;71.03;;;;;;;5.89;100.00;102473.19;12820286;23;20023;-79
2021/03/03 20:48:39;;;;;;;184.98;70.45;;;;;;;6.07;100.00;102513.84;12821071;23;20112;-80
2021/03/03 20:53:39;;;;;;;185.48;67.90;;;;;;;5.80;100.00;102469.53;12819399;23;20019;-80
2021/03/03 20:58:40;;;;;;;185.38;66.63;;;;;;;6.33;100.00;102531.22;12845039;23;20308;-82
2021/03/03 21:03:40;;;;;;;178.18;66.15;;;;;;;6.19;100.00;102519.59;12845899;23;20289;-80
2021/03/03 21:08:41;;;;;;;152.18;60.47;;;;;;;6.20;100.00;102521.16;12784097;23;20036;-81
2021/03/03 21:13:47;;;;;;;173.82;68.43;;;;;;;5.64;100.00;102433.22;12843312;23;20020;-84
2021/03/03 21:18:48;;;;;;;185.02;69.18;;;;;;;4.75;100.00;102321.03;12818265;23;20012;-82
2021/03/03 21:23:48;;;;;;;186.20;67.55;;;;;;;4.89;100.00;102316.63;12842100;23;20075;-81
2021/03/03 21:28:54;;;;;;;187.50;67.82;;;;;;;5.86;100.00;102456.88;12845385;23;20335;-79
2021/03/03 21:33:54;;;;;;;184.40;66.70;;;;;;;5.91;100.00;102476.38;12846201;23;20028;-82
2021/03/03 21:39:09;;;;;;;193.02;71.68;;;;;;;5.30;100.00;102385.88;12796248;23;20005;-85
2021/03/03 21:44:18;;;;;;;;;;;;;;;6.01;100.00;102501.53;12813638;23;20020;-82
2021/03/03 21:49:18;;;;;;;204.85;70.28;;;;;;;5.77;100.00;102448.66;12846705;23;20345;-75
2021/03/03 21:54:22;;;;;;;209.75;72.97;;;;;;;5.96;100.00;102480.13;12842933;23;20005;-83
2021/03/03 21:59:25;;;;;;;215.07;73.75;;;;;;;5.88;100.00;102495.75;12846613;23;20040;-79
2021/03/03 22:04:25;;;;;;;192.80;65.72;;;;;;;5.98;100.00;102486.03;12819671;23;20008;-79
2021/03/03 22:09:26;;;;;;;196.57;65.28;;;;;;;5.26;100.00;102390.22;12820818;23;20017;-80
2021/03/03 22:14:26;;;;;;;230.93;74.78;;;;;;;5.86;100.00;102463.03;12844052;23;20399;-80
2021/03/03 22:19:27;;;;;;;249.98;78.20;;;;;;;5.71;100.00;102476.63;12841888;23;20016;-79
2021/03/03 22:24:28;;;;;;;272.30;82.40;;;;;;;5.81;100.00;102489.94;12852254;23;20420;-79
2021/03/03 22:29:29;;;;;;;281.27;83.13;;;;;;;5.59;100.00;102458.25;12826323;23;20024;-80
2021/03/03 22:34:29;;;;;;;266.40;82.50;;;;;;;5.59;100.00;102478.91;12852311;23;20017;-80
2021/03/03 22:39:32;;;;;;;305.13;89.10;;;;;;;5.00;100.00;102366.34;12826472;23;20027;-80
2021/03/03 22:44:35;;;;;;;308.30;89.00;;;;;;;5.89;100.00;102500.03;12825291;23;20079;-78
2021/03/03 22:49:38;;;;;;;314.17;86.85;;;;;;;5.93;100.00;102474.22;12849181;23;20028;-78
2021/03/03 22:54:38;;;;;;;326.23;94.32;;;;;;;5.63;100.00;102416.34;12826760;23;20325;-77
2021/03/03 22:59:39;;;;;;;338.85;96.35;;;;;;;5.88;100.00;102433.25;12850139;23;20016;-78
2021/03/03 23:04:39;;;;;;;339.25;96.55;;;;;;;5.96;100.00;102450.63;12822575;23;20071;-78
2021/03/03 23:09:42;;;;;;;359.48;96.70;;;;;;;5.96;100.00;102434.50;12850616;23;20025;-78
2021/03/03 23:14:43;;;;;;;352.23;102.32;;;;;;;5.42;100.00;102345.25;12850948;23;20101;-78
2021/03/03 23:19:43;;;;;;;351.30;99.43;;;;;;;5.70;100.00;102389.19;12824434;23;20032;-79
2021/03/03 23:24:44;;;;;;;325.88;95.95;;;;;;;5.34;100.00;102319.88;12851914;23;20016;-78
2021/03/03 23:29:44;;;;;;;319.42;97.57;;;;;;;5.58;100.00;102343.19;12824102;23;20027;-78
2021/03/03 23:34:45;;;;;;;346.55;102.18;;;;;;;5.83;100.00;102388.47;12823104;23;20020;-78
2021/03/03 23:39:45;;;;;;;337.58;99.45;;;;;;;5.86;100.00;102403.19;12799684;23;20005;-78
2021/03/03 23:44:46;;;;;;;332.20;99.13;;;;;;;5.47;100.00;102370.13;12797943;23;20074;-78